sensor_id;sensor_type;location;lat;lon;timestamp;P1;durP1;ratioP1;P2;durP2;ratioP2
71116;SDS011;58775;46.992;9.518;2024-01-16T00:01:55;6.97;;;2.28;;
71116;SDS011;58775;46.992;9.518;2024-01-16T00:03:56;7.85;;;2.60;;
71116;SDS011;58775;46.992;9.518;2024-01-16T00:05:57;8.07;;;2.60;;
71116;SDS011;58775;46.992;9.518;2024-01-16T00:07:59;8.70;;;2.55;;
71116;SDS011;58775;46.992;9.518;2024-01-16T00:10:00;7.93;;;2.60;;
71116;SDS011;58775;46.992;9.518;2024-01-16T00:12:01;7.80;;;2.67;;
71116;SDS011;58775;46.992;9.518;2024-01-16T00:14:04;7.20;;;2.67;;
71116;SDS011;58775;46.992;9.518;2024-01-16T00:16:05;8.77;;;3.00;;
71116;SDS011;58775;46.992;9.518;2024-01-16T00:18:06;8.32;;;3.05;;
71116;SDS011;58775;46.992;9.518;2024-01-16T00:20:07;7.30;;;2.55;;
71116;SDS011;58775;46.992;9.518;2024-01-16T00:22:08;10.23;;;2.53;;
71116;SDS011;58775;46.992;9.518;2024-01-16T00:24:09;8.83;;;3.07;;
71116;SDS011;58775;46.992;9.518;2024-01-16T00:26:19;8.60;;;3.40;;
71116;SDS011;58775;46.992;9.518;2024-01-16T00:28:23;9.13;;;2.88;;
71116;SDS011;58775;46.992;9.518;2024-01-16T00:30:24;8.40;;;3.00;;
71116;SDS011;58775;46.992;9.518;2024-01-16T00:32:24;8.57;;;2.80;;
71116;SDS011;58775;46.992;9.518;2024-01-16T00:34:25;11.17;;;3.10;;
71116;SDS011;58775;46.992;9.518;2024-01-16T00:36:26;11.20;;;2.90;;
71116;SDS011;58775;46.992;9.518;2024-01-16T00:38:26;9.50;;;3.30;;
71116;SDS011;58775;46.992;9.518;2024-01-16T00:40:27;7.82;;;2.40;;
71116;SDS011;58775;46.992;9.518;2024-01-16T00:42:28;7.70;;;3.00;;
71116;SDS011;58775;46.992;9.518;2024-01-16T00:44:29;7.65;;;2.33;;
71116;SDS011;58775;46.992;9.518;2024-01-16T00:46:30;7.37;;;2.50;;
71116;SDS011;58775;46.992;9.518;2024-01-16T00:48:31;10.02;;;2.85;;
71116;SDS011;58775;46.992;9.518;2024-01-16T00:50:31;7.93;;;2.90;;
71116;SDS011;58775;46.992;9.518;2024-01-16T00:52:32;8.73;;;2.73;;
71116;SDS011;58775;46.992;9.518;2024-01-16T00:54:33;10.48;;;2.75;;
71116;SDS011;58775;46.992;9.518;2024-01-16T00:56:35;8.30;;;2.57;;
71116;SDS011;58775;46.992;9.518;2024-01-16T00:58:36;9.20;;;2.72;;
71116;SDS011;58775;46.992;9.518;2024-01-16T01:00:37;7.22;;;2.63;;
71116;SDS011;58775;46.992;9.518;2024-01-16T01:02:38;7.73;;;3.07;;
71116;SDS011;58775;46.992;9.518;2024-01-16T01:04:39;9.75;;;2.85;;
71116;SDS011;58775;46.992;9.518;2024-01-16T01:06:41;7.80;;;2.78;;
71116;SDS011;58775;46.992;9.518;2024-01-16T01:08:42;6.73;;;2.57;;
71116;SDS011;58775;46.992;9.518;2024-01-16T01:10:43;8.60;;;2.50;;
71116;SDS011;58775;46.992;9.518;2024-01-16T01:12:44;9.73;;;3.20;;
71116;SDS011;58775;46.992;9.518;2024-01-16T01:14:44;10.88;;;3.10;;
71116;SDS011;58775;46.992;9.518;2024-01-16T01:16:45;10.47;;;3.83;;
71116;SDS011;58775;46.992;9.518;2024-01-16T01:18:46;9.85;;;3.08;;
71116;SDS011;58775;46.992;9.518;2024-01-16T01:20:47;8.50;;;3.40;;
71116;SDS011;58775;46.992;9.518;2024-01-16T01:22:48;9.52;;;3.63;;
71116;SDS011;58775;46.992;9.518;2024-01-16T01:24:48;8.05;;;3.13;;
71116;SDS011;58775;46.992;9.518;2024-01-16T01:26:49;10.73;;;3.50;;
71116;SDS011;58775;46.992;9.518;2024-01-16T01:28:50;9.43;;;3.03;;
71116;SDS011;58775;46.992;9.518;2024-01-16T01:30:51;8.37;;;2.73;;
71116;SDS011;58775;46.992;9.518;2024-01-16T01:32:51;10.38;;;3.47;;
71116;SDS011;58775;46.992;9.518;2024-01-16T01:34:53;12.90;;;3.40;;
71116;SDS011;58775;46.992;9.518;2024-01-16T01:36:53;8.27;;;2.93;;
71116;SDS011;58775;46.992;9.518;2024-01-16T01:38:57;9.38;;;3.70;;
71116;SDS011;58775;46.992;9.518;2024-01-16T01:40:58;8.13;;;3.10;;
71116;SDS011;58775;46.992;9.518;2024-01-16T01:43:16;11.53;;;3.60;;
71116;SDS011;58775;46.992;9.518;2024-01-16T01:45:26;10.55;;;3.42;;
71116;SDS011;58775;46.992;9.518;2024-01-16T01:47:26;10.95;;;3.63;;
71116;SDS011;58775;46.992;9.518;2024-01-16T01:49:27;9.90;;;3.37;;
71116;SDS011;58775;46.992;9.518;2024-01-16T01:51:28;10.07;;;3.03;;
71116;SDS011;58775;46.992;9.518;2024-01-16T01:53:30;8.93;;;3.17;;
71116;SDS011;58775;46.992;9.518;2024-01-16T01:55:32;11.45;;;4.20;;
71116;SDS011;58775;46.992;9.518;2024-01-16T01:57:33;8.57;;;2.97;;
71116;SDS011;58775;46.992;9.518;2024-01-16T01:59:34;9.00;;;3.35;;
71116;SDS011;58775;46.992;9.518;2024-01-16T02:01:36;11.45;;;3.70;;
71116;SDS011;58775;46.992;9.518;2024-01-16T02:03:44;10.23;;;3.33;;
71116;SDS011;58775;46.992;9.518;2024-01-16T02:05:45;9.53;;;3.07;;
71116;SDS011;58775;46.992;9.518;2024-01-16T02:07:46;7.25;;;3.13;;
71116;SDS011;58775;46.992;9.518;2024-01-16T02:09:47;8.63;;;2.95;;
71116;SDS011;58775;46.992;9.518;2024-01-16T02:11:49;9.47;;;3.00;;
71116;SDS011;58775;46.992;9.518;2024-01-16T02:13:50;9.63;;;3.20;;
71116;SDS011;58775;46.992;9.518;2024-01-16T02:15:51;10.43;;;2.92;;
71116;SDS011;58775;46.992;9.518;2024-01-16T02:17:51;10.50;;;3.13;;
71116;SDS011;58775;46.992;9.518;2024-01-16T02:19:52;8.63;;;3.13;;
71116;SDS011;58775;46.992;9.518;2024-01-16T02:21:54;10.13;;;3.17;;
71116;SDS011;58775;46.992;9.518;2024-01-16T02:23:59;10.68;;;3.65;;
71116;SDS011;58775;46.992;9.518;2024-01-16T02:26:00;10.10;;;3.60;;
71116;SDS011;58775;46.992;9.518;2024-01-16T02:28:03;11.07;;;3.50;;
71116;SDS011;58775;46.992;9.518;2024-01-16T02:30:04;11.10;;;4.05;;
71116;SDS011;58775;46.992;9.518;2024-01-16T02:32:06;10.27;;;3.50;;
71116;SDS011;58775;46.992;9.518;2024-01-16T02:34:07;10.40;;;3.75;;
71116;SDS011;58775;46.992;9.518;2024-01-16T02:36:09;9.47;;;3.13;;
71116;SDS011;58775;46.992;9.518;2024-01-16T02:38:09;9.15;;;3.53;;
71116;SDS011;58775;46.992;9.518;2024-01-16T02:40:10;11.02;;;3.08;;
71116;SDS011;58775;46.992;9.518;2024-01-16T02:42:11;13.93;;;4.10;;
71116;SDS011;58775;46.992;9.518;2024-01-16T02:44:12;9.30;;;3.15;;
71116;SDS011;58775;46.992;9.518;2024-01-16T02:46:15;10.97;;;3.77;;
71116;SDS011;58775;46.992;9.518;2024-01-16T02:48:16;9.30;;;3.78;;
71116;SDS011;58775;46.992;9.518;2024-01-16T02:50:17;8.00;;;3.08;;
71116;SDS011;58775;46.992;9.518;2024-01-16T02:52:18;8.27;;;3.10;;
71116;SDS011;58775;46.992;9.518;2024-01-16T02:54:19;12.32;;;3.25;;
71116;SDS011;58775;46.992;9.518;2024-01-16T02:56:20;8.90;;;3.22;;
71116;SDS011;58775;46.992;9.518;2024-01-16T02:58:21;9.77;;;3.17;;
71116;SDS011;58775;46.992;9.518;2024-01-16T03:00:22;10.50;;;3.03;;
71116;SDS011;58775;46.992;9.518;2024-01-16T03:02:23;9.63;;;3.07;;
71116;SDS011;58775;46.992;9.518;2024-01-16T03:04:24;7.75;;;3.00;;
71116;SDS011;58775;46.992;9.518;2024-01-16T03:06:25;7.68;;;3.17;;
71116;SDS011;58775;46.992;9.518;2024-01-16T03:08:26;9.43;;;3.08;;
71116;SDS011;58775;46.992;9.518;2024-01-16T03:10:26;10.57;;;3.13;;
71116;SDS011;58775;46.992;9.518;2024-01-16T03:12:27;8.68;;;3.25;;
71116;SDS011;58775;46.992;9.518;2024-01-16T03:14:28;9.30;;;3.15;;
71116;SDS011;58775;46.992;9.518;2024-01-16T03:16:34;10.23;;;3.70;;
71116;SDS011;58775;46.992;9.518;2024-01-16T03:18:35;10.65;;;3.65;;
71116;SDS011;58775;46.992;9.518;2024-01-16T03:20:37;9.20;;;3.20;;
71116;SDS011;58775;46.992;9.518;2024-01-16T03:22:38;12.13;;;3.28;;
71116;SDS011;58775;46.992;9.518;2024-01-16T03:24:39;9.85;;;3.67;;
71116;SDS011;58775;46.992;9.518;2024-01-16T03:26:40;8.80;;;3.25;;
71116;SDS011;58775;46.992;9.518;2024-01-16T03:28:43;11.00;;;3.75;;
71116;SDS011;58775;46.992;9.518;2024-01-16T03:30:46;9.60;;;3.15;;
71116;SDS011;58775;46.992;9.518;2024-01-16T03:32:47;9.47;;;3.83;;
71116;SDS011;58775;46.992;9.518;2024-01-16T03:34:48;9.82;;;3.53;;
71116;SDS011;58775;46.992;9.518;2024-01-16T03:36:49;10.05;;;3.58;;
71116;SDS011;58775;46.992;9.518;2024-01-16T03:38:49;9.82;;;3.63;;
71116;SDS011;58775;46.992;9.518;2024-01-16T03:40:50;8.85;;;3.35;;
71116;SDS011;58775;46.992;9.518;2024-01-16T03:42:51;10.77;;;3.50;;
71116;SDS011;58775;46.992;9.518;2024-01-16T03:44:52;9.82;;;3.42;;
71116;SDS011;58775;46.992;9.518;2024-01-16T03:46:53;9.75;;;3.38;;
71116;SDS011;58775;46.992;9.518;2024-01-16T03:48:55;12.07;;;3.50;;
71116;SDS011;58775;46.992;9.518;2024-01-16T03:50:56;12.45;;;3.80;;
71116;SDS011;58775;46.992;9.518;2024-01-16T03:52:57;8.68;;;3.17;;
71116;SDS011;58775;46.992;9.518;2024-01-16T03:54:58;11.50;;;3.60;;
71116;SDS011;58775;46.992;9.518;2024-01-16T03:56:59;9.00;;;3.17;;
71116;SDS011;58775;46.992;9.518;2024-01-16T03:58:59;11.93;;;3.45;;
71116;SDS011;58775;46.992;9.518;2024-01-16T04:01:00;7.53;;;2.73;;
71116;SDS011;58775;46.992;9.518;2024-01-16T04:03:01;11.98;;;3.65;;
71116;SDS011;58775;46.992;9.518;2024-01-16T04:05:02;11.07;;;3.67;;
71116;SDS011;58775;46.992;9.518;2024-01-16T04:07:03;13.77;;;3.97;;
71116;SDS011;58775;46.992;9.518;2024-01-16T04:09:05;9.18;;;3.28;;
71116;SDS011;58775;46.992;9.518;2024-01-16T04:11:10;9.85;;;3.63;;
71116;SDS011;58775;46.992;9.518;2024-01-16T04:13:12;10.27;;;3.65;;
71116;SDS011;58775;46.992;9.518;2024-01-16T04:15:13;9.77;;;2.93;;
71116;SDS011;58775;46.992;9.518;2024-01-16T04:17:15;9.95;;;3.20;;
71116;SDS011;58775;46.992;9.518;2024-01-16T04:19:16;10.60;;;3.53;;
71116;SDS011;58775;46.992;9.518;2024-01-16T04:21:17;11.50;;;3.37;;
71116;SDS011;58775;46.992;9.518;2024-01-16T04:23:19;11.05;;;3.60;;
71116;SDS011;58775;46.992;9.518;2024-01-16T04:25:19;10.23;;;3.80;;
71116;SDS011;58775;46.992;9.518;2024-01-16T04:27:20;10.47;;;3.70;;
71116;SDS011;58775;46.992;9.518;2024-01-16T04:29:21;10.02;;;3.80;;
71116;SDS011;58775;46.992;9.518;2024-01-16T04:31:22;11.85;;;3.95;;
71116;SDS011;58775;46.992;9.518;2024-01-16T04:33:23;11.37;;;3.50;;
71116;SDS011;58775;46.992;9.518;2024-01-16T04:35:24;9.88;;;3.60;;
71116;SDS011;58775;46.992;9.518;2024-01-16T04:37:25;8.70;;;3.13;;
71116;SDS011;58775;46.992;9.518;2024-01-16T04:39:26;10.73;;;3.83;;
71116;SDS011;58775;46.992;9.518;2024-01-16T04:41:26;11.20;;;3.40;;
71116;SDS011;58775;46.992;9.518;2024-01-16T04:43:27;12.65;;;3.72;;
71116;SDS011;58775;46.992;9.518;2024-01-16T04:45:28;11.57;;;3.37;;
71116;SDS011;58775;46.992;9.518;2024-01-16T04:47:29;10.65;;;3.35;;
71116;SDS011;58775;46.992;9.518;2024-01-16T04:49:31;12.27;;;3.28;;
71116;SDS011;58775;46.992;9.518;2024-01-16T04:51:32;10.03;;;3.70;;
71116;SDS011;58775;46.992;9.518;2024-01-16T04:53:33;10.88;;;3.70;;
71116;SDS011;58775;46.992;9.518;2024-01-16T04:55:34;8.43;;;3.10;;
71116;SDS011;58775;46.992;9.518;2024-01-16T04:57:35;11.88;;;4.15;;
71116;SDS011;58775;46.992;9.518;2024-01-16T04:59:36;10.57;;;3.60;;
71116;SDS011;58775;46.992;9.518;2024-01-16T05:01:37;12.68;;;4.10;;
71116;SDS011;58775;46.992;9.518;2024-01-16T05:03:37;12.07;;;3.90;;
71116;SDS011;58775;46.992;9.518;2024-01-16T05:05:38;10.68;;;4.00;;
71116;SDS011;58775;46.992;9.518;2024-01-16T05:07:40;11.48;;;3.47;;
71116;SDS011;58775;46.992;9.518;2024-01-16T05:09:41;9.48;;;3.53;;
71116;SDS011;58775;46.992;9.518;2024-01-16T05:11:42;10.20;;;3.23;;
71116;SDS011;58775;46.992;9.518;2024-01-16T05:13:43;9.23;;;3.33;;
71116;SDS011;58775;46.992;9.518;2024-01-16T05:15:43;13.43;;;3.97;;
71116;SDS011;58775;46.992;9.518;2024-01-16T05:17:44;10.20;;;3.80;;
71116;SDS011;58775;46.992;9.518;2024-01-16T05:19:45;14.83;;;3.97;;
71116;SDS011;58775;46.992;9.518;2024-01-16T05:21:46;9.60;;;3.20;;
71116;SDS011;58775;46.992;9.518;2024-01-16T05:23:46;13.73;;;4.73;;
71116;SDS011;58775;46.992;9.518;2024-01-16T05:25:47;12.52;;;4.40;;
71116;SDS011;58775;46.992;9.518;2024-01-16T05:27:48;11.68;;;3.72;;
71116;SDS011;58775;46.992;9.518;2024-01-16T05:29:49;10.30;;;3.53;;
71116;SDS011;58775;46.992;9.518;2024-01-16T05:31:50;10.05;;;3.88;;
71116;SDS011;58775;46.992;9.518;2024-01-16T05:33:51;11.40;;;4.13;;
71116;SDS011;58775;46.992;9.518;2024-01-16T05:35:52;11.50;;;3.70;;
71116;SDS011;58775;46.992;9.518;2024-01-16T05:37:53;8.95;;;3.20;;
71116;SDS011;58775;46.992;9.518;2024-01-16T05:39:54;10.52;;;3.50;;
71116;SDS011;58775;46.992;9.518;2024-01-16T05:41:55;14.30;;;3.72;;
71116;SDS011;58775;46.992;9.518;2024-01-16T05:43:56;13.90;;;4.30;;
71116;SDS011;58775;46.992;9.518;2024-01-16T05:45:56;8.90;;;2.83;;
71116;SDS011;58775;46.992;9.518;2024-01-16T05:47:57;9.52;;;3.00;;
71116;SDS011;58775;46.992;9.518;2024-01-16T05:49:58;8.80;;;2.93;;
71116;SDS011;58775;46.992;9.518;2024-01-16T05:51:59;10.38;;;3.10;;
71116;SDS011;58775;46.992;9.518;2024-01-16T05:54:00;10.35;;;3.33;;
71116;SDS011;58775;46.992;9.518;2024-01-16T05:56:01;10.97;;;3.70;;
71116;SDS011;58775;46.992;9.518;2024-01-16T05:58:02;11.52;;;3.45;;
71116;SDS011;58775;46.992;9.518;2024-01-16T06:00:03;10.65;;;3.20;;
71116;SDS011;58775;46.992;9.518;2024-01-16T06:02:05;9.73;;;3.27;;
71116;SDS011;58775;46.992;9.518;2024-01-16T06:04:06;10.32;;;3.55;;
71116;SDS011;58775;46.992;9.518;2024-01-16T06:06:07;11.10;;;3.38;;
71116;SDS011;58775;46.992;9.518;2024-01-16T06:08:08;10.65;;;3.03;;
71116;SDS011;58775;46.992;9.518;2024-01-16T06:10:11;9.88;;;3.35;;
71116;SDS011;58775;46.992;9.518;2024-01-16T06:12:14;11.77;;;4.07;;
71116;SDS011;58775;46.992;9.518;2024-01-16T06:14:14;8.93;;;3.27;;
71116;SDS011;58775;46.992;9.518;2024-01-16T06:16:21;8.70;;;3.40;;
71116;SDS011;58775;46.992;9.518;2024-01-16T06:18:22;11.30;;;3.88;;
71116;SDS011;58775;46.992;9.518;2024-01-16T06:20:23;9.53;;;3.43;;
71116;SDS011;58775;46.992;9.518;2024-01-16T06:22:25;9.95;;;3.42;;
71116;SDS011;58775;46.992;9.518;2024-01-16T06:24:26;11.00;;;3.38;;
71116;SDS011;58775;46.992;9.518;2024-01-16T06:26:27;10.25;;;3.22;;
71116;SDS011;58775;46.992;9.518;2024-01-16T06:28:27;8.90;;;3.47;;
71116;SDS011;58775;46.992;9.518;2024-01-16T06:30:28;7.95;;;2.58;;
71116;SDS011;58775;46.992;9.518;2024-01-16T06:32:29;7.67;;;2.67;;
71116;SDS011;58775;46.992;9.518;2024-01-16T06:34:30;8.75;;;2.97;;
71116;SDS011;58775;46.992;9.518;2024-01-16T06:36:31;8.23;;;2.50;;
71116;SDS011;58775;46.992;9.518;2024-01-16T06:38:32;8.18;;;2.35;;
71116;SDS011;58775;46.992;9.518;2024-01-16T06:40:33;9.13;;;2.92;;
71116;SDS011;58775;46.992;9.518;2024-01-16T06:42:33;7.60;;;2.43;;
71116;SDS011;58775;46.992;9.518;2024-01-16T06:44:36;12.80;;;3.13;;
71116;SDS011;58775;46.992;9.518;2024-01-16T06:46:37;9.00;;;3.00;;
71116;SDS011;58775;46.992;9.518;2024-01-16T06:48:38;8.83;;;2.73;;
71116;SDS011;58775;46.992;9.518;2024-01-16T06:50:38;8.63;;;3.30;;
71116;SDS011;58775;46.992;9.518;2024-01-16T06:52:39;9.60;;;2.70;;
71116;SDS011;58775;46.992;9.518;2024-01-16T06:54:40;12.95;;;3.28;;
71116;SDS011;58775;46.992;9.518;2024-01-16T06:56:41;9.65;;;2.70;;
71116;SDS011;58775;46.992;9.518;2024-01-16T06:58:42;10.07;;;3.45;;
71116;SDS011;58775;46.992;9.518;2024-01-16T07:00:44;11.40;;;3.43;;
71116;SDS011;58775;46.992;9.518;2024-01-16T07:02:46;11.05;;;3.72;;
71116;SDS011;58775;46.992;9.518;2024-01-16T07:04:47;10.73;;;3.17;;
71116;SDS011;58775;46.992;9.518;2024-01-16T07:06:47;12.07;;;3.70;;
71116;SDS011;58775;46.992;9.518;2024-01-16T07:08:48;9.27;;;3.15;;
71116;SDS011;58775;46.992;9.518;2024-01-16T07:10:49;9.02;;;3.30;;
71116;SDS011;58775;46.992;9.518;2024-01-16T07:12:50;7.43;;;2.60;;
71116;SDS011;58775;46.992;9.518;2024-01-16T07:14:51;9.35;;;2.60;;
71116;SDS011;58775;46.992;9.518;2024-01-16T07:16:52;9.38;;;2.75;;
71116;SDS011;58775;46.992;9.518;2024-01-16T07:18:53;8.13;;;3.00;;
71116;SDS011;58775;46.992;9.518;2024-01-16T07:20:55;14.50;;;3.58;;
71116;SDS011;58775;46.992;9.518;2024-01-16T07:22:56;8.70;;;2.55;;
71116;SDS011;58775;46.992;9.518;2024-01-16T07:24:57;8.73;;;2.53;;
71116;SDS011;58775;46.992;9.518;2024-01-16T07:26:58;7.97;;;2.42;;
71116;SDS011;58775;46.992;9.518;2024-01-16T07:28:58;6.50;;;2.37;;
71116;SDS011;58775;46.992;9.518;2024-01-16T07:30:59;5.95;;;1.70;;
71116;SDS011;58775;46.992;9.518;2024-01-16T07:33:00;8.63;;;2.57;;
71116;SDS011;58775;46.992;9.518;2024-01-16T07:35:01;9.05;;;2.20;;
71116;SDS011;58775;46.992;9.518;2024-01-16T07:37:03;9.23;;;2.92;;
71116;SDS011;58775;46.992;9.518;2024-01-16T07:39:04;9.90;;;2.60;;
71116;SDS011;58775;46.992;9.518;2024-01-16T07:41:04;7.63;;;2.30;;
71116;SDS011;58775;46.992;9.518;2024-01-16T07:43:05;9.18;;;2.35;;
71116;SDS011;58775;46.992;9.518;2024-01-16T07:45:07;7.67;;;2.40;;
71116;SDS011;58775;46.992;9.518;2024-01-16T07:47:08;5.10;;;1.83;;
71116;SDS011;58775;46.992;9.518;2024-01-16T07:49:08;7.63;;;2.35;;
71116;SDS011;58775;46.992;9.518;2024-01-16T07:51:10;6.68;;;2.00;;
71116;SDS011;58775;46.992;9.518;2024-01-16T07:53:10;4.93;;;1.60;;
71116;SDS011;58775;46.992;9.518;2024-01-16T07:55:11;7.47;;;2.50;;
71116;SDS011;58775;46.992;9.518;2024-01-16T07:57:12;8.03;;;2.10;;
71116;SDS011;58775;46.992;9.518;2024-01-16T07:59:13;6.13;;;2.00;;
71116;SDS011;58775;46.992;9.518;2024-01-16T08:01:14;7.50;;;2.08;;
71116;SDS011;58775;46.992;9.518;2024-01-16T08:03:15;10.07;;;1.80;;
71116;SDS011;58775;46.992;9.518;2024-01-16T08:05:16;7.47;;;2.03;;
71116;SDS011;58775;46.992;9.518;2024-01-16T08:07:16;6.10;;;2.20;;
71116;SDS011;58775;46.992;9.518;2024-01-16T08:09:18;6.65;;;1.60;;
71116;SDS011;58775;46.992;9.518;2024-01-16T08:11:20;6.90;;;2.20;;
71116;SDS011;58775;46.992;9.518;2024-01-16T08:13:21;6.13;;;1.48;;
71116;SDS011;58775;46.992;9.518;2024-01-16T08:15:21;5.17;;;1.83;;
71116;SDS011;58775;46.992;9.518;2024-01-16T08:17:22;6.45;;;2.10;;
71116;SDS011;58775;46.992;9.518;2024-01-16T08:19:23;6.60;;;1.70;;
71116;SDS011;58775;46.992;9.518;2024-01-16T08:21:24;5.63;;;1.60;;
71116;SDS011;58775;46.992;9.518;2024-01-16T08:23:25;4.57;;;1.63;;
71116;SDS011;58775;46.992;9.518;2024-01-16T08:25:26;5.07;;;1.60;;
71116;SDS011;58775;46.992;9.518;2024-01-16T08:27:26;4.88;;;1.75;;
71116;SDS011;58775;46.992;9.518;2024-01-16T08:29:29;9.00;;;1.80;;
71116;SDS011;58775;46.992;9.518;2024-01-16T08:31:29;7.43;;;1.90;;
71116;SDS011;58775;46.992;9.518;2024-01-16T08:33:30;5.32;;;1.67;;
71116;SDS011;58775;46.992;9.518;2024-01-16T08:35:31;5.57;;;1.33;;
71116;SDS011;58775;46.992;9.518;2024-01-16T08:37:32;6.97;;;1.75;;
71116;SDS011;58775;46.992;9.518;2024-01-16T08:39:34;5.75;;;1.52;;
71116;SDS011;58775;46.992;9.518;2024-01-16T08:41:35;4.80;;;1.50;;
71116;SDS011;58775;46.992;9.518;2024-01-16T08:43:36;6.93;;;1.75;;
71116;SDS011;58775;46.992;9.518;2024-01-16T08:45:37;5.00;;;1.67;;
71116;SDS011;58775;46.992;9.518;2024-01-16T08:47:38;6.33;;;1.70;;
71116;SDS011;58775;46.992;9.518;2024-01-16T08:49:39;4.55;;;1.40;;
71116;SDS011;58775;46.992;9.518;2024-01-16T08:51:40;4.93;;;1.60;;
71116;SDS011;58775;46.992;9.518;2024-01-16T08:53:41;5.93;;;1.60;;
71116;SDS011;58775;46.992;9.518;2024-01-16T08:55:42;5.00;;;1.48;;
71116;SDS011;58775;46.992;9.518;2024-01-16T08:57:43;4.43;;;1.45;;
71116;SDS011;58775;46.992;9.518;2024-01-16T08:59:44;5.82;;;1.60;;
71116;SDS011;58775;46.992;9.518;2024-01-16T09:01:44;4.47;;;1.50;;
71116;SDS011;58775;46.992;9.518;2024-01-16T09:03:45;5.03;;;1.37;;
71116;SDS011;58775;46.992;9.518;2024-01-16T09:05:47;5.85;;;1.58;;
71116;SDS011;58775;46.992;9.518;2024-01-16T09:07:48;5.40;;;1.65;;
71116;SDS011;58775;46.992;9.518;2024-01-16T09:09:49;4.37;;;1.57;;
71116;SDS011;58775;46.992;9.518;2024-01-16T09:11:50;4.72;;;1.48;;
71116;SDS011;58775;46.992;9.518;2024-01-16T09:13:51;7.60;;;1.80;;
71116;SDS011;58775;46.992;9.518;2024-01-16T09:15:51;5.72;;;1.50;;
71116;SDS011;58775;46.992;9.518;2024-01-16T09:17:52;5.22;;;1.52;;
71116;SDS011;58775;46.992;9.518;2024-01-16T09:19:53;6.38;;;1.95;;
71116;SDS011;58775;46.992;9.518;2024-01-16T09:21:54;6.20;;;1.88;;
71116;SDS011;58775;46.992;9.518;2024-01-16T09:23:55;4.55;;;1.50;;
71116;SDS011;58775;46.992;9.518;2024-01-16T09:25:56;6.37;;;1.93;;
71116;SDS011;58775;46.992;9.518;2024-01-16T09:27:57;5.85;;;1.80;;
71116;SDS011;58775;46.992;9.518;2024-01-16T09:29:57;5.73;;;1.93;;
71116;SDS011;58775;46.992;9.518;2024-01-16T09:31:58;5.32;;;1.70;;
71116;SDS011;58775;46.992;9.518;2024-01-16T09:33:59;5.68;;;1.92;;
71116;SDS011;58775;46.992;9.518;2024-01-16T09:36:00;6.13;;;1.90;;
71116;SDS011;58775;46.992;9.518;2024-01-16T09:38:00;6.47;;;1.70;;
71116;SDS011;58775;46.992;9.518;2024-01-16T09:40:01;4.28;;;1.60;;
71116;SDS011;58775;46.992;9.518;2024-01-16T09:42:05;5.50;;;1.80;;
71116;SDS011;58775;46.992;9.518;2024-01-16T09:44:06;4.32;;;1.55;;
71116;SDS011;58775;46.992;9.518;2024-01-16T09:46:07;4.78;;;1.60;;
71116;SDS011;58775;46.992;9.518;2024-01-16T09:48:11;4.43;;;1.50;;
71116;SDS011;58775;46.992;9.518;2024-01-16T09:50:13;5.78;;;1.63;;
71116;SDS011;58775;46.992;9.518;2024-01-16T09:52:17;5.35;;;1.67;;
71116;SDS011;58775;46.992;9.518;2024-01-16T09:54:18;4.90;;;1.60;;
71116;SDS011;58775;46.992;9.518;2024-01-16T09:56:21;5.53;;;1.50;;
71116;SDS011;58775;46.992;9.518;2024-01-16T09:58:24;4.85;;;1.48;;
71116;SDS011;58775;46.992;9.518;2024-01-16T10:00:26;6.28;;;1.70;;
71116;SDS011;58775;46.992;9.518;2024-01-16T10:02:29;5.55;;;1.67;;
71116;SDS011;58775;46.992;9.518;2024-01-16T10:04:31;5.60;;;1.70;;
71116;SDS011;58775;46.992;9.518;2024-01-16T10:06:32;5.63;;;1.58;;
71116;SDS011;58775;46.992;9.518;2024-01-16T10:08:34;5.65;;;2.00;;
71116;SDS011;58775;46.992;9.518;2024-01-16T10:10:35;6.90;;;1.95;;
71116;SDS011;58775;46.992;9.518;2024-01-16T10:12:35;5.10;;;1.67;;
71116;SDS011;58775;46.992;9.518;2024-01-16T10:14:38;5.45;;;1.60;;
71116;SDS011;58775;46.992;9.518;2024-01-16T10:19:16;7.53;;;1.65;;
71116;SDS011;58775;46.992;9.518;2024-01-16T10:21:20;6.30;;;1.93;;
71116;SDS011;58775;46.992;9.518;2024-01-16T10:23:30;4.53;;;1.45;;
71116;SDS011;58775;46.992;9.518;2024-01-16T10:25:33;5.55;;;1.48;;
71116;SDS011;58775;46.992;9.518;2024-01-16T10:27:40;6.03;;;1.70;;
71116;SDS011;58775;46.992;9.518;2024-01-16T10:29:54;4.18;;;1.23;;
71116;SDS011;58775;46.992;9.518;2024-01-16T10:31:59;5.88;;;1.55;;
71116;SDS011;58775;46.992;9.518;2024-01-16T10:34:00;5.93;;;1.70;;
71116;SDS011;58775;46.992;9.518;2024-01-16T10:36:14;6.00;;;1.50;;
71116;SDS011;58775;46.992;9.518;2024-01-16T10:38:21;5.10;;;1.77;;
71116;SDS011;58775;46.992;9.518;2024-01-16T10:40:25;6.40;;;1.88;;
71116;SDS011;58775;46.992;9.518;2024-01-16T10:42:28;6.22;;;1.73;;
71116;SDS011;58775;46.992;9.518;2024-01-16T10:44:29;5.83;;;1.70;;
71116;SDS011;58775;46.992;9.518;2024-01-16T10:46:30;4.22;;;1.45;;
71116;SDS011;58775;46.992;9.518;2024-01-16T10:48:30;5.78;;;1.85;;
71116;SDS011;58775;46.992;9.518;2024-01-16T10:50:31;6.77;;;1.50;;
71116;SDS011;58775;46.992;9.518;2024-01-16T10:52:33;4.53;;;1.50;;
71116;SDS011;58775;46.992;9.518;2024-01-16T10:54:36;6.43;;;1.20;;
71116;SDS011;58775;46.992;9.518;2024-01-16T10:56:43;4.15;;;1.50;;
71116;SDS011;58775;46.992;9.518;2024-01-16T10:58:51;4.50;;;1.37;;
71116;SDS011;58775;46.992;9.518;2024-01-16T11:01:14;4.93;;;1.58;;
71116;SDS011;58775;46.992;9.518;2024-01-16T11:03:18;5.18;;;1.45;;
71116;SDS011;58775;46.992;9.518;2024-01-16T11:05:22;4.75;;;1.40;;
71116;SDS011;58775;46.992;9.518;2024-01-16T11:07:23;5.15;;;1.20;;
71116;SDS011;58775;46.992;9.518;2024-01-16T11:09:26;5.23;;;1.20;;
71116;SDS011;58775;46.992;9.518;2024-01-16T11:11:27;6.78;;;1.55;;
71116;SDS011;58775;46.992;9.518;2024-01-16T11:13:30;5.85;;;1.67;;
71116;SDS011;58775;46.992;9.518;2024-01-16T11:15:34;4.78;;;1.30;;
71116;SDS011;58775;46.992;9.518;2024-01-16T11:17:37;5.93;;;1.60;;
71116;SDS011;58775;46.992;9.518;2024-01-16T11:19:40;4.70;;;1.30;;
71116;SDS011;58775;46.992;9.518;2024-01-16T11:21:40;5.60;;;1.55;;
71116;SDS011;58775;46.992;9.518;2024-01-16T11:23:42;5.25;;;1.65;;
71116;SDS011;58775;46.992;9.518;2024-01-16T11:25:45;5.90;;;1.83;;
71116;SDS011;58775;46.992;9.518;2024-01-16T11:27:46;6.77;;;2.20;;
71116;SDS011;58775;46.992;9.518;2024-01-16T11:29:51;4.78;;;1.70;;
71116;SDS011;58775;46.992;9.518;2024-01-16T11:31:54;4.38;;;1.33;;
71116;SDS011;58775;46.992;9.518;2024-01-16T11:33:55;6.65;;;1.80;;
71116;SDS011;58775;46.992;9.518;2024-01-16T11:35:56;6.13;;;1.90;;
71116;SDS011;58775;46.992;9.518;2024-01-16T11:38:02;5.93;;;1.83;;
71116;SDS011;58775;46.992;9.518;2024-01-16T11:42:27;7.90;;;1.42;;
71116;SDS011;58775;46.992;9.518;2024-01-16T11:47:01;6.43;;;2.08;;
71116;SDS011;58775;46.992;9.518;2024-01-16T11:49:03;4.00;;;1.30;;
71116;SDS011;58775;46.992;9.518;2024-01-16T11:51:22;6.45;;;1.35;;
71116;SDS011;58775;46.992;9.518;2024-01-16T11:55:31;6.25;;;1.73;;
71116;SDS011;58775;46.992;9.518;2024-01-16T11:58:21;4.90;;;1.33;;
71116;SDS011;58775;46.992;9.518;2024-01-16T12:00:20;6.63;;;1.20;;
71116;SDS011;58775;46.992;9.518;2024-01-16T12:02:21;4.82;;;1.50;;
71116;SDS011;58775;46.992;9.518;2024-01-16T12:04:29;5.07;;;1.67;;
71116;SDS011;58775;46.992;9.518;2024-01-16T12:06:30;5.55;;;1.50;;
71116;SDS011;58775;46.992;9.518;2024-01-16T12:08:32;4.43;;;1.38;;
71116;SDS011;58775;46.992;9.518;2024-01-16T12:10:34;4.40;;;1.20;;
71116;SDS011;58775;46.992;9.518;2024-01-16T12:12:48;3.70;;;1.00;;
71116;SDS011;58775;46.992;9.518;2024-01-16T12:14:52;4.78;;;1.52;;
71116;SDS011;58775;46.992;9.518;2024-01-16T12:17:08;4.78;;;1.10;;
71116;SDS011;58775;46.992;9.518;2024-01-16T12:19:13;11.82;;;4.47;;
71116;SDS011;58775;46.992;9.518;2024-01-16T12:21:14;7.65;;;2.65;;